Time;durP1;ratioP1;P1;durP2;ratioP2;P2;SDS_P1;SDS_P2;PMS_P1;PMS_P2;Temp;Humidity;BMP_temperature;BMP_pressure;BME280_temperature;BME280_humidity;BME280_pressure;Samples;Min_cycle;Max_cycle;Signal;HPM_P1;HPM_P2
2022/05/23 00:00:22;;;;;;;1999.90;999.90;;;20.60;99.90;;;;;;5073485;28;20451;-72
2022/05/23 00:02:49;;;;;;;1999.90;999.90;;;20.50;99.90;;;;;;5073786;28;20971;-71
2022/05/23 00:05:15;;;;;;;1999.90;999.90;;;20.50;99.90;;;;;;5073252;28;20407;-71
2022/05/23 00:07:47;;;;;;;1999.90;999.90;;;20.40;99.90;;;;;;5073559;28;20807;-72
2022/05/23 00:10:15;;;;;;;1999.90;999.90;;;20.40;99.90;;;;;;5073398;28;20404;-72
2022/05/23 00:12:41;;;;;;;1999.90;999.90;;;20.40;99.90;;;;;;5073405;28;20401;-72
2022/05/23 00:15:09;;;;;;;1999.90;999.90;;;20.30;99.90;;;;;;5073074;28;20938;-71
2022/05/23 00:17:35;;;;;;;1999.90;999.90;;;20.30;99.90;;;;;;5073389;28;20282;-71
2022/05/23 00:20:03;;;;;;;1999.90;999.90;;;20.30;99.90;;;;;;5073203;28;20807;-71
2022/05/23 00:22:31;;;;;;;1999.90;999.90;;;20.20;99.90;;;;;;5073199;28;20380;-71
2022/05/23 00:24:58;;;;;;;1999.90;999.90;;;20.20;99.90;;;;;;5072190;28;20409;-71
2022/05/23 00:27:23;;;;;;;1999.90;999.90;;;20.20;99.90;;;;;;5073039;28;20385;-72
2022/05/23 00:29:50;;;;;;;1999.90;999.90;;;20.20;99.90;;;;;;5073002;28;20865;-71
2022/05/23 00:35:18;;;;;;;1999.90;999.90;;;20.20;99.90;;;;;;5073081;28;20935;-72
2022/05/23 00:37:44;;;;;;;1999.90;999.90;;;20.20;99.90;;;;;;5072726;28;20424;-72
2022/05/23 00:40:35;;;;;;;1999.90;999.90;;;20.20;99.90;;;;;;5072796;28;20398;-72
2022/05/23 00:43:15;;;;;;;1999.90;999.90;;;20.10;99.90;;;;;;5072858;28;20398;-72
2022/05/23 00:45:45;;;;;;;1999.90;999.90;;;20.10;99.90;;;;;;5072605;28;20478;-71
2022/05/23 00:48:12;;;;;;;1999.90;999.90;;;20.10;99.90;;;;;;5072727;28;20467;-71
2022/05/23 00:50:41;;;;;;;1999.90;999.90;;;20.10;99.90;;;;;;5072669;28;20925;-71
2022/05/23 00:53:08;;;;;;;1999.90;999.90;;;20.00;99.90;;;;;;5072676;28;20487;-71
2022/05/23 00:55:41;;;;;;;1999.90;999.90;;;19.90;99.90;;;;;;5072299;28;20401;-71
2022/05/23 00:58:29;;;;;;;1999.90;999.90;;;19.80;99.90;;;;;;5072464;28;20454;-71
2022/05/23 01:00:58;;;;;;;1999.90;999.90;;;19.70;99.90;;;;;;5072581;28;20409;-72
2022/05/23 01:03:24;;;;;;;1999.90;999.90;;;19.70;99.90;;;;;;5072442;28;20400;-72
2022/05/23 01:05:54;;;;;;;1999.90;999.90;;;19.70;99.90;;;;;;5072118;28;20507;-72
2022/05/23 01:08:20;;;;;;;1999.90;999.90;;;19.70;99.90;;;;;;5072372;28;20183;-72
2022/05/23 01:10:46;;;;;;;1999.90;999.90;;;19.70;99.90;;;;;;5072248;28;20469;-72
2022/05/23 01:13:12;;;;;;;1999.90;999.90;;;19.70;99.90;;;;;;5072156;28;20231;-73
2022/05/23 01:15:38;;;;;;;1999.90;999.90;;;19.70;99.90;;;;;;5071949;28;20376;-71
2022/05/23 01:18:04;;;;;;;1999.90;999.90;;;19.80;99.90;;;;;;5072337;28;20244;-71
2022/05/23 01:20:30;;;;;;;1999.90;999.90;;;19.80;99.90;;;;;;5072088;28;20434;-71
2022/05/23 01:23:08;;;;;;;1999.90;999.90;;;19.80;99.90;;;;;;5072156;28;20761;-71
2022/05/23 01:25:34;;;;;;;1999.90;999.90;;;19.80;99.90;;;;;;5071782;28;20402;-71
2022/05/23 01:28:01;;;;;;;1999.90;999.90;;;19.80;99.90;;;;;;5072290;28;20437;-72
2022/05/23 01:30:27;;;;;;;1999.90;999.90;;;19.80;99.90;;;;;;5071993;28;20193;-72
2022/05/23 01:32:52;;;;;;;1999.90;999.90;;;19.80;99.90;;;;;;5072128;28;20432;-71
2022/05/23 01:35:18;;;;;;;1999.90;999.90;;;19.80;99.90;;;;;;5071749;28;20815;-71
2022/05/23 01:37:44;;;;;;;1999.90;999.90;;;19.80;99.90;;;;;;5070944;28;20191;-72
2022/05/23 01:40:14;;;;;;;1999.90;999.90;;;19.70;99.90;;;;;;5071876;28;20266;-71
2022/05/23 01:42:40;;;;;;;1999.90;999.90;;;19.70;99.90;;;;;;5071926;28;20758;-72
2022/05/23 01:45:07;;;;;;;1999.90;999.90;;;19.70;99.90;;;;;;5071654;28;20807;-72
2022/05/23 01:47:32;;;;;;;1999.90;999.90;;;19.70;99.90;;;;;;5071914;28;20914;-71
2022/05/23 01:49:58;;;;;;;1999.90;999.90;;;19.60;99.90;;;;;;5071746;28;20420;-71
2022/05/23 01:52:23;;;;;;;1999.90;999.90;;;19.60;99.90;;;;;;5071826;28;20176;-71
2022/05/23 01:54:49;;;;;;;1999.90;999.90;;;19.60;99.90;;;;;;5071480;28;20668;-72
2022/05/23 01:57:14;;;;;;;1999.90;999.90;;;19.60;99.90;;;;;;5071745;28;20344;-71
2022/05/23 02:02:25;;;;;;;1999.90;999.90;;;19.50;99.90;;;;;;5071835;28;20177;-71
2022/05/23 02:04:54;;;;;;;1999.90;999.90;;;19.50;99.90;;;;;;5071428;28;20893;-72
2022/05/23 02:07:20;;;;;;;1999.90;999.90;;;19.50;99.90;;;;;;5071648;28;21005;-72
2022/05/23 02:09:46;;;;;;;1999.90;999.90;;;19.50;99.90;;;;;;5071635;28;20468;-71
2022/05/23 02:12:17;;;;;;;1999.90;999.90;;;19.50;99.90;;;;;;5071712;28;20404;-71
2022/05/23 02:14:43;;;;;;;1999.90;999.90;;;19.50;99.90;;;;;;5071406;28;20662;-72
2022/05/23 02:17:10;;;;;;;1999.90;999.90;;;19.40;99.90;;;;;;5071566;28;20533;-71
2022/05/23 02:19:36;;;;;;;1999.90;999.90;;;19.40;99.90;;;;;;5071455;28;20403;-71
2022/05/23 02:22:03;;;;;;;1999.90;999.90;;;19.40;99.90;;;;;;5071526;28;20469;-71
2022/05/23 02:24:28;;;;;;;1999.90;999.90;;;19.40;99.90;;;;;;5071253;28;20678;-71
2022/05/23 02:26:54;;;;;;;1999.90;999.90;;;19.30;99.90;;;;;;5071512;28;20406;-71
2022/05/23 02:29:20;;;;;;;1999.90;999.90;;;19.30;99.90;;;;;;5071393;28;20187;-73
2022/05/23 02:31:48;;;;;;;1999.90;999.90;;;19.30;99.90;;;;;;5071411;28;20254;-72
2022/05/23 02:34:15;;;;;;;1999.90;999.90;;;19.30;99.90;;;;;;5071096;28;20442;-73
2022/05/23 02:36:41;;;;;;;1999.90;999.90;;;19.30;99.90;;;;;;5071315;28;20452;-72
2022/05/23 02:39:07;;;;;;;1999.90;999.90;;;19.20;99.90;;;;;;5071336;28;20429;-72
2022/05/23 02:41:33;;;;;;;1999.90;999.90;;;19.20;99.90;;;;;;5071402;28;20405;-72
2022/05/23 02:43:59;;;;;;;1999.90;999.90;;;19.20;99.90;;;;;;5071247;28;20378;-72
2022/05/23 02:46:25;;;;;;;1999.90;999.90;;;19.20;99.90;;;;;;5071292;28;20407;-72
2022/05/23 02:48:51;;;;;;;1999.90;999.90;;;19.20;99.90;;;;;;5072766;28;20914;-72
2022/05/23 02:51:16;;;;;;;1999.90;999.90;;;19.20;99.90;;;;;;5074992;28;20397;-72
2022/05/23 02:53:42;;;;;;;1999.90;999.90;;;19.20;99.90;;;;;;5074843;28;20248;-74
2022/05/23 02:56:07;;;;;;;1999.90;999.90;;;19.20;99.90;;;;;;5074638;28;20201;-72
2022/05/23 02:58:33;;;;;;;1999.90;999.90;;;19.20;99.90;;;;;;5074577;28;20199;-72
2022/05/23 03:00:58;;;;;;;1999.90;999.90;;;19.10;99.90;;;;;;5088079;23;20597;-69
2022/05/23 03:03:24;;;;;;;1999.90;999.90;;;19.20;99.90;;;;;;5074630;28;20167;-69
2022/05/23 03:05:51;;;;;;;1999.90;999.90;;;19.10;99.90;;;;;;5074691;28;20680;-69
2022/05/23 03:08:25;;;;;;;1999.90;999.90;;;19.10;99.90;;;;;;5074693;28;20403;-69
2022/05/23 03:10:52;;;;;;;1999.90;999.90;;;19.10;99.90;;;;;;5074606;28;20792;-69
2022/05/23 03:13:18;;;;;;;1999.90;999.90;;;19.00;99.90;;;;;;5074755;28;20439;-69
2022/05/23 03:15:44;;;;;;;1999.90;999.90;;;19.00;99.90;;;;;;5074228;28;20426;-69
2022/05/23 03:18:10;;;;;;;1999.90;999.90;;;19.00;99.90;;;;;;5074308;28;20714;-69
2022/05/23 03:20:36;;;;;;;1999.90;999.90;;;19.00;99.90;;;;;;5074694;28;20697;-69
2022/05/23 03:28:31;;;;;;;1999.90;999.90;;;18.90;99.90;;;;;;5074573;28;20458;-69
2022/05/23 03:30:57;;;;;;;1999.90;999.90;;;18.90;99.90;;;;;;5074167;28;20924;-69
2022/05/23 03:33:23;;;;;;;1999.90;999.90;;;18.80;99.90;;;;;;5074181;28;20202;-69
2022/05/23 03:35:49;;;;;;;1999.90;999.90;;;18.80;99.90;;;;;;5073992;28;20281;-69
2022/05/23 03:38:15;;;;;;;1999.90;999.90;;;18.80;99.90;;;;;;5074070;28;20206;-69
2022/05/23 03:40:41;;;;;;;1999.90;999.90;;;18.70;99.90;;;;;;5074010;28;20455;-69
2022/05/23 03:43:07;;;;;;;1999.90;999.90;;;18.70;99.90;;;;;;5074070;28;20404;-69
2022/05/23 03:45:34;;;;;;;1999.90;999.90;;;18.70;99.90;;;;;;5073690;28;20431;-69
2022/05/23 03:48:00;;;;;;;1999.90;999.90;;;18.70;99.90;;;;;;5073889;28;20398;-69
2022/05/23 03:50:28;;;;;;;1999.90;999.90;;;18.70;99.90;;;;;;5073762;28;20512;-69
2022/05/23 03:52:54;;;;;;;1999.90;999.90;;;18.70;99.90;;;;;;5073823;28;20494;-69
2022/05/23 03:55:20;;;;;;;1999.90;999.90;;;18.70;99.90;;;;;;5073511;28;20554;-69
2022/05/23 03:57:46;;;;;;;1999.90;999.90;;;18.70;99.90;;;;;;5073599;28;20204;-69
2022/05/23 04:00:13;;;;;;;1999.90;999.90;;;18.70;99.90;;;;;;5072549;28;20439;-69
2022/05/23 04:02:40;;;;;;;1999.90;999.90;;;18.70;99.90;;;;;;5073590;28;20561;-69
2022/05/23 04:05:07;;;;;;;1999.90;999.90;;;18.60;99.90;;;;;;5073399;28;20409;-69
2022/05/23 04:07:36;;;;;;;1999.90;999.90;;;18.60;99.90;;;;;;5073613;28;20397;-69
2022/05/23 04:10:07;;;;;;;1999.90;999.90;;;18.60;99.90;;;;;;5073420;28;20438;-69
2022/05/23 04:12:32;;;;;;;1999.90;999.90;;;18.60;99.90;;;;;;5073394;28;20444;-69
2022/05/23 04:14:58;;;;;;;1999.90;999.90;;;18.60;99.90;;;;;;5073105;28;20496;-69
2022/05/23 04:17:23;;;;;;;1999.90;999.90;;;18.60;99.90;;;;;;5073209;28;20228;-69
2022/05/23 04:19:49;;;;;;;1999.90;999.90;;;18.60;99.90;;;;;;5073223;28;20191;-69
2022/05/23 04:22:15;;;;;;;1999.90;999.90;;;18.70;99.90;;;;;;5073247;28;20174;-69
2022/05/23 04:24:40;;;;;;;1999.90;999.90;;;18.70;99.90;;;;;;5072836;28;20178;-69
2022/05/23 04:27:06;;;;;;;1999.90;999.90;;;18.70;99.90;;;;;;5073198;28;20614;-69
2022/05/23 04:29:32;;;;;;;1999.90;999.90;;;18.70;99.90;;;;;;5072987;28;20185;-69
2022/05/23 04:31:57;;;;;;;1999.90;999.90;;;18.70;99.90;;;;;;5073008;28;20245;-69
2022/05/23 04:37:07;;;;;;;1999.90;999.90;;;18.60;99.90;;;;;;5072930;28;20253;-69
2022/05/23 04:39:33;;;;;;;1999.90;999.90;;;18.50;99.90;;;;;;5072774;28;20831;-69
2022/05/23 04:42:00;;;;;;;1999.90;999.90;;;18.50;99.90;;;;;;5073025;28;20247;-69
2022/05/23 04:44:26;;;;;;;1999.90;999.90;;;18.50;99.90;;;;;;5072644;28;20194;-69
2022/05/23 04:49:44;;;;;;;1999.90;999.90;;;18.50;99.90;;;;;;5072642;28;20438;-69
2022/05/23 04:52:14;;;;;;;1999.90;999.90;;;18.60;99.90;;;;;;5072785;28;20892;-69
2022/05/23 04:54:41;;;;;;;1999.90;999.90;;;18.60;99.90;;;;;;5072312;28;20412;-69
2022/05/23 04:57:10;;;;;;;1999.90;999.90;;;18.60;99.90;;;;;;5072502;28;20821;-69
2022/05/23 04:59:36;;;;;;;1999.90;999.90;;;18.60;99.90;;;;;;5072339;28;20846;-69
2022/05/23 05:02:02;;;;;;;1999.90;999.90;;;18.60;99.90;;;;;;5072305;28;20436;-69
2022/05/23 05:04:29;;;;;;;1999.90;999.90;;;18.70;99.90;;;;;;5072027;28;20824;-69
2022/05/23 05:06:54;;;;;;;1999.90;999.90;;;18.70;99.90;;;;;;5072603;28;20455;-69
2022/05/23 05:09:20;;;;;;;1999.90;999.90;;;18.70;99.90;;;;;;5072321;28;20788;-70
2022/05/23 05:11:46;;;;;;;1999.90;999.90;;;18.60;99.90;;;;;;5072141;28;20174;-70
2022/05/23 05:14:11;;;;;;;1999.90;999.90;;;18.60;99.90;;;;;;5072024;28;20172;-70
2022/05/23 05:16:37;;;;;;;1999.90;999.90;;;18.70;99.90;;;;;;5072102;28;20244;-70
2022/05/23 05:19:03;;;;;;;1999.90;999.90;;;18.70;99.90;;;;;;5072152;28;20184;-70
2022/05/23 05:21:29;;;;;;;1999.90;999.90;;;18.70;99.90;;;;;;5072251;28;20171;-70
2022/05/23 05:23:55;;;;;;;1999.90;999.90;;;18.70;99.90;;;;;;5072111;28;20418;-70
2022/05/23 05:26:22;;;;;;;1999.90;999.90;;;18.80;99.90;;;;;;5071965;28;20465;-70
2022/05/23 05:28:48;;;;;;;1999.90;999.90;;;18.90;99.90;;;;;;5072137;28;20409;-70
2022/05/23 05:31:46;;;;;;;1999.90;999.90;;;18.90;99.90;;;;;;5071942;28;20796;-69
2022/05/23 05:34:29;;;;;;;1999.90;999.90;;;19.00;99.90;;;;;;5071774;28;20216;-70
2022/05/23 05:37:02;;;;;;;1999.90;999.90;;;19.10;99.90;;;;;;5071965;28;20472;-70
2022/05/23 05:39:31;;;;;;;1999.90;999.90;;;19.20;99.90;;;;;;5071950;28;20426;-70
2022/05/23 05:41:59;;;;;;;1999.90;999.90;;;19.20;99.90;;;;;;5071884;28;20407;-70
2022/05/23 05:44:30;;;;;;;1999.90;999.90;;;19.20;99.90;;;;;;5071724;28;20425;-70
2022/05/23 05:46:59;;;;;;;1999.90;999.90;;;19.30;99.90;;;;;;5071909;28;20918;-70
2022/05/23 05:49:28;;;;;;;1999.90;999.90;;;19.30;99.90;;;;;;5071869;28;20491;-70
2022/05/23 05:51:59;;;;;;;1999.90;999.90;;;19.30;99.90;;;;;;5071912;28;20873;-70
2022/05/23 05:54:28;;;;;;;1999.90;999.90;;;19.40;99.90;;;;;;5071578;28;20419;-70
2022/05/23 05:56:55;;;;;;;1999.90;999.90;;;19.40;99.90;;;;;;5071860;28;20424;-70
2022/05/23 05:59:21;;;;;;;1999.90;999.90;;;19.50;99.90;;;;;;5071612;28;20409;-70
2022/05/23 06:01:47;;;;;;;1999.90;999.90;;;19.60;99.90;;;;;;5071755;28;20487;-69
2022/05/23 06:04:12;;;;;;;1999.90;999.90;;;19.70;99.90;;;;;;5071516;28;20433;-69
2022/05/23 06:12:06;;;;;;;1999.90;999.90;;;19.80;99.90;;;;;;5071754;28;20787;-69
2022/05/23 06:14:33;;;;;;;1999.90;999.90;;;19.80;99.90;;;;;;5071403;28;20400;-69
2022/05/23 06:16:58;;;;;;;1999.90;999.90;;;19.80;99.90;;;;;;5071532;28;20460;-69
2022/05/23 06:19:24;;;;;;;1999.90;999.90;;;19.90;99.90;;;;;;5071506;28;20922;-69
2022/05/23 06:21:49;;;;;;;1999.90;999.90;;;20.00;99.90;;;;;;5071592;28;20159;-69
2022/05/23 06:24:15;;;;;;;1999.90;999.90;;;20.10;99.90;;;;;;5073739;28;20172;-69
2022/05/23 06:26:41;;;;;;;1999.90;999.90;;;20.10;99.90;;;;;;5075495;28;20189;-69
2022/05/23 06:29:06;;;;;;;1999.90;999.90;;;20.10;99.90;;;;;;5075311;28;20637;-69
2022/05/23 06:31:32;;;;;;;1999.90;999.90;;;20.10;99.90;;;;;;5075465;28;20174;-69
2022/05/23 06:33:58;;;;;;;1999.90;999.90;;;20.10;99.90;;;;;;5075125;28;20182;-69
2022/05/23 06:36:23;;;;;;;1999.90;999.90;;;19.90;99.90;;;;;;5075087;28;20169;-69
2022/05/23 06:38:49;;;;;;;1999.90;999.90;;;19.90;99.90;;;;;;5075220;28;20160;-69
2022/05/23 06:41:15;;;;;;;1999.90;999.90;;;19.80;99.90;;;;;;5075146;28;20667;-69
2022/05/23 06:43:44;;;;;;;1999.90;999.90;;;19.80;99.90;;;;;;5075055;28;20174;-69
2022/05/23 06:46:12;;;;;;;1999.90;999.90;;;19.90;99.90;;;;;;5074864;28;20401;-69
2022/05/23 06:48:38;;;;;;;1999.90;999.90;;;20.00;99.90;;;;;;5075007;28;20415;-69
2022/05/23 06:51:05;;;;;;;1999.90;999.90;;;20.10;99.90;;;;;;5074876;28;20421;-69
2022/05/23 06:53:31;;;;;;;1999.90;999.90;;;20.10;99.90;;;;;;5074962;28;20409;-69
2022/05/23 06:55:57;;;;;;;1999.90;999.90;;;20.20;99.90;;;;;;5074619;28;20754;-69
2022/05/23 06:58:23;;;;;;;1999.90;999.90;;;20.30;99.90;;;;;;5074763;28;20198;-69
2022/05/23 07:00:49;;;;;;;1999.90;999.90;;;20.40;99.90;;;;;;5074616;28;20437;-69
2022/05/23 07:03:15;;;;;;;1999.90;999.90;;;20.40;99.90;;;;;;5074798;28;20206;-69
2022/05/23 07:13:55;;;;;;;1999.90;999.90;;;20.40;99.90;;;;;;5074643;28;20420;-69
2022/05/23 07:16:22;;;;;;;1999.90;999.90;;;20.50;99.90;;;;;;5074282;28;20384;-69
2022/05/23 07:18:47;;;;;;;1999.90;999.90;;;20.50;99.90;;;;;;5074481;28;20401;-69
2022/05/23 07:21:15;;;;;;;1999.90;999.90;;;20.60;99.90;;;;;;5074452;28;20418;-69
2022/05/23 07:23:41;;;;;;;1999.90;999.90;;;20.70;99.90;;;;;;5074417;28;20177;-69
2022/05/23 07:26:10;;;;;;;1999.90;999.90;;;20.80;99.90;;;;;;5074058;28;20945;-69
2022/05/23 07:28:36;;;;;;;1999.90;999.90;;;20.90;99.90;;;;;;5074323;28;20178;-69
2022/05/23 07:31:03;;;;;;;1999.90;999.90;;;21.00;99.90;;;;;;5074256;28;20807;-69
2022/05/23 07:33:29;;;;;;;1999.90;999.90;;;21.10;99.90;;;;;;5074268;28;20407;-69
2022/05/23 07:35:57;;;;;;;1999.90;999.90;;;21.10;99.90;;;;;;5071902;28;20497;-70
2022/05/23 07:38:23;;;;;;;1999.90;999.90;;;21.10;99.90;;;;;;5072828;28;20465;-70
2022/05/23 07:40:50;;;;;;;1999.90;999.90;;;21.10;99.90;;;;;;5073824;28;20428;-70
2022/05/23 07:43:16;;;;;;;1999.90;999.90;;;21.10;99.90;;;;;;5073437;28;20464;-70
2022/05/23 07:45:42;;;;;;;1999.90;999.90;;;21.10;99.90;;;;;;5073175;28;20411;-69
2022/05/23 07:48:08;;;;;;;1999.90;999.90;;;21.20;99.90;;;;;;5073783;28;20411;-69
2022/05/23 07:50:34;;;;;;;1999.90;999.90;;;21.20;99.90;;;;;;5073574;28;20429;-69
2022/05/23 08:01:24;;;;;;;1999.90;999.90;;;21.50;99.90;;;;;;5073202;28;20851;-69
2022/05/23 08:03:49;;;;;;;1999.90;999.90;;;21.50;99.90;;;;;;5073370;28;20432;-69
2022/05/23 08:06:15;;;;;;;1999.90;999.90;;;21.50;99.90;;;;;;5072592;28;20471;-69
2022/05/23 08:08:41;;;;;;;1999.90;999.90;;;21.60;99.90;;;;;;5073329;28;20186;-69
2022/05/23 08:11:08;;;;;;;1999.90;999.90;;;21.60;99.90;;;;;;5072973;28;20284;-69
2022/05/23 08:13:39;;;;;;;1999.90;999.90;;;21.60;99.90;;;;;;5072731;28;20171;-69
2022/05/23 08:16:05;;;;;;;1999.90;999.90;;;21.60;99.90;;;;;;5072796;28;20376;-69
2022/05/23 08:18:32;;;;;;;1999.90;999.90;;;21.50;99.90;;;;;;5073035;28;20451;-69
2022/05/23 08:20:58;;;;;;;1999.90;999.90;;;21.60;99.90;;;;;;5072313;28;20493;-70
2022/05/23 08:23:25;;;;;;;1999.90;999.90;;;21.70;99.90;;;;;;5072874;28;20467;-69
2022/05/23 08:25:51;;;;;;;1999.90;999.90;;;21.70;99.90;;;;;;5072574;28;20408;-69
2022/05/23 08:28:17;;;;;;;1999.90;999.90;;;21.80;99.90;;;;;;5072388;28;20772;-69
2022/05/23 08:30:42;;;;;;;1999.90;999.90;;;21.90;99.90;;;;;;5072699;28;20434;-69
2022/05/23 08:33:08;;;;;;;1999.90;999.90;;;21.90;99.90;;;;;;5072663;28;20243;-69
2022/05/23 08:35:33;;;;;;;1999.90;999.90;;;21.90;99.90;;;;;;5072019;28;20172;-69
2022/05/23 08:37:59;;;;;;;1999.90;999.90;;;21.80;99.90;;;;;;5072600;28;20204;-69
2022/05/23 08:40:40;;;;;;;1999.90;999.90;;;21.80;99.90;;;;;;5072528;28;20286;-69
2022/05/23 08:43:07;;;;;;;1999.90;999.90;;;21.80;99.90;;;;;;5071936;28;20223;-69
2022/05/23 08:45:44;;;;;;;1999.90;999.90;;;21.90;99.90;;;;;;5072028;28;20463;-69
2022/05/23 08:48:22;;;;;;;1999.90;999.90;;;22.10;99.90;;;;;;5072649;28;20386;-69
2022/05/23 08:50:59;;;;;;;1999.90;999.90;;;22.10;99.90;;;;;;5071889;28;20406;-69
2022/05/23 08:53:30;;;;;;;1999.90;999.90;;;22.20;99.90;;;;;;5072364;28;20404;-69
2022/05/23 08:56:00;;;;;;;1999.90;999.90;;;22.30;99.90;;;;;;5072004;28;20375;-69
2022/05/23 08:58:41;;;;;;;1999.90;999.90;;;22.40;99.90;;;;;;5071872;28;20843;-69
2022/05/23 09:01:20;;;;;;;1999.90;999.90;;;22.60;99.90;;;;;;5072404;28;20470;-70
2022/05/23 09:04:00;;;;;;;1999.90;999.90;;;22.80;99.90;;;;;;5072111;28;20375;-70
2022/05/23 09:06:34;;;;;;;1999.90;999.90;;;22.90;99.90;;;;;;5071766;28;20753;-70
2022/05/23 09:09:07;;;;;;;1999.90;999.90;;;23.10;99.90;;;;;;5072189;28;20379;-70
2022/05/23 09:11:41;;;;;;;1999.90;999.90;;;23.30;99.90;;;;;;5072253;28;20902;-70
2022/05/23 09:14:11;;;;;;;1999.90;999.90;;;23.70;99.90;;;;;;5068380;28;20947;-73
2022/05/23 09:16:57;;;;;;;1999.90;999.90;;;24.00;99.90;;;;;;5049160;28;20948;-73
2022/05/23 09:19:25;;;;;;;1999.90;999.90;;;24.20;99.90;;;;;;5069454;28;20796;-74
2022/05/23 09:22:14;;;;;;;1999.90;999.90;;;24.50;99.90;;;;;;5068182;28;20383;-72
2022/05/23 09:24:53;;;;;;;1999.90;999.90;;;24.60;99.90;;;;;;5057499;28;20480;-74
2022/05/23 09:27:34;;;;;;;1999.90;999.90;;;24.70;99.90;;;;;;5054104;28;20399;-69
2022/05/23 09:30:00;;;;;;;1999.90;999.90;;;24.80;99.90;;;;;;5071365;28;20494;-69
2022/05/23 09:32:32;;;;;;;1999.90;999.90;;;24.80;99.90;;;;;;5071402;28;20409;-69
2022/05/23 09:35:17;;;;;;;1999.90;999.90;;;24.90;99.90;;;;;;5069954;28;20191;-69
2022/05/23 09:37:47;;;;;;;1999.90;999.90;;;25.10;99.90;;;;;;5071219;28;20792;-68
2022/05/23 09:40:29;;;;;;;1999.90;999.90;;;25.10;99.90;;;;;;5071235;28;20470;-69
2022/05/23 09:49:15;;;;;;;1999.90;999.90;;;24.90;99.90;;;;;;5071019;28;20364;-69
2022/05/23 09:51:47;;;;;;;1999.90;999.90;;;24.80;99.90;;;;;;5070941;28;20439;-69
2022/05/23 09:54:25;;;;;;;1999.90;999.90;;;24.80;99.90;;;;;;5062644;28;20392;-69
2022/05/23 09:56:52;;;;;;;1999.90;999.90;;;24.90;99.90;;;;;;5070695;28;20856;-69
2022/05/23 09:59:34;;;;;;;1999.90;999.90;;;24.90;99.90;;;;;;5073700;28;20371;-69
2022/05/23 10:02:18;;;;;;;1999.90;999.90;;;24.90;99.90;;;;;;5075281;28;20940;-68
2022/05/23 10:04:45;;;;;;;1999.90;999.90;;;25.00;99.90;;;;;;5074046;28;20821;-69
2022/05/23 10:07:28;;;;;;;1999.90;999.90;;;25.20;99.90;;;;;;5075029;28;20375;-69
2022/05/23 10:10:00;;;;;;;1999.90;999.90;;;25.50;99.90;;;;;;5075070;28;20628;-69
2022/05/23 10:12:26;;;;;;;1999.90;999.90;;;25.90;99.90;;;;;;5074573;28;20881;-69
2022/05/23 10:15:02;;;;;;;1999.90;999.90;;;26.20;99.90;;;;;;5074220;28;20423;-69
2022/05/23 10:17:38;;;;;;;1999.90;999.90;;;26.50;99.90;;;;;;5074898;28;20200;-69
2022/05/23 10:20:26;;;;;;;1999.90;999.90;;;26.70;99.90;;;;;;5074462;28;20416;-69
2022/05/23 10:22:56;;;;;;;1999.90;999.90;;;26.90;99.90;;;;;;5074718;28;20396;-69
2022/05/23 10:25:22;;;;;;;1999.90;999.90;;;27.10;99.90;;;;;;5073631;28;20484;-69
2022/05/23 10:27:56;;;;;;;1999.90;999.90;;;27.30;99.90;;;;;;5074084;28;20428;-69
2022/05/23 10:30:25;;;;;;;1999.90;999.90;;;27.30;99.90;;;;;;5074611;28;20503;-70
2022/05/23 10:32:57;;;;;;;1999.90;999.90;;;27.30;99.90;;;;;;5074816;28;20409;-69
2022/05/23 10:35:33;;;;;;;1999.90;999.90;;;27.40;99.90;;;;;;5073280;28;20483;-70
2022/05/23 10:43:47;;;;;;;1999.90;999.90;;;27.70;99.90;;;;;;5074397;28;20387;-69
2022/05/23 10:46:13;;;;;;;1999.90;999.90;;;27.90;99.90;;;;;;5073819;28;20413;-69
2022/05/23 10:48:59;;;;;;;1999.90;999.90;;;28.10;99.90;;;;;;5073771;28;20412;-69
2022/05/23 10:51:30;;;;;;;1999.90;999.90;;;28.20;99.90;;;;;;5074175;28;20439;-69
2022/05/23 10:54:04;;;;;;;1999.90;999.90;;;28.20;99.90;;;;;;5074001;28;20409;-70
2022/05/23 10:56:54;;;;;;;1999.90;999.90;;;28.10;99.90;;;;;;5073522;28;20404;-69
2022/05/23 10:59:28;;;;;;;1999.90;999.90;;;27.90;99.90;;;;;;5074043;28;20439;-69
2022/05/23 11:02:06;;;;;;;1999.90;999.90;;;27.70;99.90;;;;;;5074039;28;20404;-69
2022/05/23 11:04:44;;;;;;;1999.90;999.90;;;27.50;99.90;;;;;;5072887;28;20384;-69
2022/05/23 11:07:47;;;;;;;1999.90;999.90;;;27.30;99.90;;;;;;5073711;28;20405;-68
2022/05/23 11:10:31;;;;;;;1999.90;999.90;;;27.20;99.90;;;;;;5073407;28;20473;-70
2022/05/23 11:13:28;;;;;;;1999.90;999.90;;;27.30;99.90;;;;;;5073613;28;20866;-69
2022/05/23 11:15:57;;;;;;;1999.90;999.90;;;27.30;99.90;;;;;;5002883;28;20780;-69
2022/05/23 11:18:32;;;;;;;1999.90;999.90;;;27.30;99.90;;;;;;5073272;28;20451;-68
2022/05/23 11:21:04;;;;;;;1999.90;999.90;;;27.40;99.90;;;;;;5073782;28;20420;-68
2022/05/23 11:24:07;;;;;;;1999.90;999.90;;;27.40;99.90;;;;;;5073550;28;20438;-69
2022/05/23 11:26:53;;;;;;;1999.90;999.90;;;27.40;99.90;;;;;;5062183;28;20922;-69
2022/05/23 11:35:01;;;;;;;1999.90;999.90;;;27.50;99.90;;;;;;5070836;28;20408;-69
2022/05/23 11:40:02;;;;;;;1999.90;999.90;;;27.40;99.90;;;;;;5073714;28;20444;-69
2022/05/23 11:42:31;;;;;;;1999.90;999.90;;;27.40;99.90;;;;;;5073408;28;20505;-69
2022/05/23 11:48:41;;;;;;;1999.90;999.90;;;27.30;99.90;;;;;;5073363;28;20400;-69
2022/05/23 11:51:16;;;;;;;1999.90;999.90;;;27.50;99.90;;;;;;5073543;28;20425;-69
2022/05/23 11:53:56;;;;;;;1999.90;999.90;;;27.70;99.90;;;;;;5073735;28;20491;-69
2022/05/23 11:56:43;;;;;;;1999.90;999.90;;;27.80;99.90;;;;;;5072486;28;20409;-69
2022/05/23 11:59:23;;;;;;;1999.90;999.90;;;27.90;99.90;;;;;;5073218;28;20423;-69
2022/05/23 12:02:11;;;;;;;1999.90;999.90;;;27.90;99.90;;;;;;5073450;28;20411;-69
2022/05/23 12:04:48;;;;;;;1999.90;999.90;;;28.20;99.90;;;;;;5072447;28;20403;-69
2022/05/23 12:07:37;;;;;;;1999.90;999.90;;;28.20;99.90;;;;;;5073193;28;20407;-69
2022/05/23 12:10:21;;;;;;;1999.90;999.90;;;28.00;99.90;;;;;;5072860;28;20477;-69
2022/05/23 12:12:56;;;;;;;1999.90;999.90;;;27.60;99.90;;;;;;5073166;28;20397;-68
2022/05/23 12:15:43;;;;;;;1999.90;999.90;;;27.10;99.90;;;;;;5071175;28;20917;-69
2022/05/23 12:18:47;;;;;;;1999.90;999.90;;;26.70;99.90;;;;;;5072336;28;20941;-68
2022/05/23 12:21:35;;;;;;;1999.90;999.90;;;26.20;99.90;;;;;;5072132;28;20436;-69
2022/05/23 12:24:13;;;;;;;1999.90;999.90;;;25.90;99.90;;;;;;5072703;28;20514;-68
2022/05/23 12:26:40;;;;;;;1999.90;999.90;;;25.70;99.90;;;;;;5072589;28;20408;-69
2022/05/23 12:29:26;;;;;;;1999.90;999.90;;;25.40;99.90;;;;;;5072972;28;20404;-69
2022/05/23 12:32:16;;;;;;;1999.90;999.90;;;25.40;99.90;;;;;;5072772;28;20873;-69
2022/05/23 12:34:44;;;;;;;1999.90;999.90;;;25.20;99.90;;;;;;5072349;28;20384;-68
2022/05/23 12:37:27;;;;;;;1999.90;999.90;;;25.10;99.90;;;;;;5072800;28;20452;-69
2022/05/23 12:40:24;;;;;;;1999.90;999.90;;;24.90;99.90;;;;;;5072188;28;20422;-69
2022/05/23 12:43:17;;;;;;;1999.90;999.90;;;24.80;99.90;;;;;;5072622;28;20979;-69
2022/05/23 12:46:00;;;;;;;1999.90;999.90;;;24.60;99.90;;;;;;5061800;28;20392;-69
2022/05/23 12:48:52;;;;;;;1999.90;999.90;;;24.40;99.90;;;;;;5071892;28;20385;-69
2022/05/23 12:51:21;;;;;;;1999.90;999.90;;;24.30;99.90;;;;;;5055570;28;20429;-68
2022/05/23 12:54:17;;;;;;;1999.90;999.90;;;24.10;99.90;;;;;;5034500;28;20392;-69
2022/05/23 12:57:14;;;;;;;1999.90;999.90;;;23.80;99.90;;;;;;5045475;28;20471;-69
2022/05/23 12:59:54;;;;;;;1999.90;999.90;;;23.70;99.90;;;;;;5065802;28;20435;-75
2022/05/23 13:02:50;;;;;;;1999.90;999.90;;;23.60;99.90;;;;;;5070658;28;20886;-74
2022/05/23 13:05:27;;;;;;;1999.90;999.90;;;23.50;99.90;;;;;;5052748;28;20512;-74
2022/05/23 13:07:58;;;;;;;1999.90;999.90;;;23.40;99.90;;;;;;5070682;28;20448;-73
2022/05/23 13:10:37;;;;;;;1999.90;999.90;;;23.30;99.90;;;;;;5070678;28;21042;-69
2022/05/23 13:13:06;;;;;;;1999.90;999.90;;;23.20;99.90;;;;;;5071635;28;20894;-70
2022/05/23 13:15:34;;;;;;;1999.90;999.90;;;22.90;99.90;;;;;;5070979;28;20826;-70
2022/05/23 13:23:31;;;;;;;1999.90;999.90;;;22.10;99.90;;;;;;5071406;28;20783;-70